Vremea acum in Deva - Romania

Vrei sa afli care e starea vremii acum in Hunedoara - Romania? Dorim sa iti furnizam starea vremii pentru Hunedoara - Romania. Starea vremii Hunedoara - Romania pentru astazi.

Vremea acum in Deva

Temperatura: 24.8 °C

Este: Senin
Se simte ca: 24.7 °C
Innorat: 2 %
Precipitatii: 0 %
Presiune atmosferica: 1014 hPa
Umiditate: 31%
Vizibilitate: 10 km
Vantul bate din E cu 6.8 km/h

Evolutia vremii in Deva pe ore

Ora: 17:00
Senin
Temperatura: 24.4°C
Sansa de precipitatii: 0%
Ora Descriere Temp Se simte Precipitatii Umiditate Vant
00:00Senin9.7°9.7°0%77%S 1.4 KM/H
01:00Senin9.1°9.1°0%79%SSE 1.8 KM/H
02:00Senin8.6°8.6°0%81%SSE 2.2 KM/H
03:00Senin8.2°8.2°0%83%SE 1.4 KM/H
04:00Senin7.8°7.8°0%85%ESE 1.8 KM/H
05:00Senin7.5°7.5°0%86%ESE 2.2 KM/H
06:00Senin7.2°7.2°0%87%SE 2.2 KM/H
07:00Senin0%83%SE 2.9 KM/H
08:00Senin12.7°13.3°0%72%SE 3.2 KM/H
09:00Senin15.7°15.7°0%62%ESE 4 KM/H
10:00Senin18.1°18.1°0%55%ESE 4.7 KM/H
11:00Senin20.1°20.2°0%49%ESE 5.4 KM/H
12:00Senin21.8°21.8°0%44%E 7.6 KM/H
13:00Senin23.2°24.3°0%38%E 8.3 KM/H
14:00Senin24.1°24.5°0%34%E 8.6 KM/H
15:00Senin24.8°24.7°0%31%E 6.8 KM/H
16:00Senin24.8°24.7°0%31%ENE 4.3 KM/H
17:00Senin24.4°24.6°0%32%NNE 2.5 KM/H
18:00Senin23.7°24.5°0%37%NW 1.8 KM/H
19:00Senin21.3°21.3°0%50%W 2.2 KM/H
20:00Senin16.6°16.6°0%58%W 3.2 KM/H
21:00Senin14.4°14.4°0%62%W 0.7 KM/H
22:00Senin13.5°13.5°0%66%ESE 2.2 KM/H
23:00Senin12.7°12.7°0%69%SSE 2.9 KM/H




tutorials